sensor_id;sensor_type;location;lat;lon;timestamp;pressure;altitude;pressure_sealevel;temperature;humidity
18821;BME280;9539;59.332;18.034;2022-08-25T00:01:00;102253.25;;;16.09;100.00
18821;BME280;9539;59.332;18.034;2022-08-25T00:03:27;102258.44;;;16.12;100.00
18821;BME280;9539;59.332;18.034;2022-08-25T00:05:55;102252.91;;;16.15;100.00
18821;BME280;9539;59.332;18.034;2022-08-25T00:08:22;102253.75;;;16.16;100.00
18821;BME280;9539;59.332;18.034;2022-08-25T00:11:02;102246.31;;;16.21;100.00
18821;BME280;9539;59.332;18.034;2022-08-25T00:13:28;102258.00;;;16.20;100.00
18821;BME280;9539;59.332;18.034;2022-08-25T00:15:55;102250.22;;;16.15;100.00
18821;BME280;9539;59.332;18.034;2022-08-25T00:18:22;102251.94;;;16.16;100.00
18821;BME280;9539;59.332;18.034;2022-08-25T00:20:50;102250.00;;;16.04;100.00
18821;BME280;9539;59.332;18.034;2022-08-25T00:23:18;102254.34;;;16.07;100.00
18821;BME280;9539;59.332;18.034;2022-08-25T00:25:45;102255.38;;;16.04;100.00
18821;BME280;9539;59.332;18.034;2022-08-25T00:28:13;102262.38;;;16.07;100.00
18821;BME280;9539;59.332;18.034;2022-08-25T00:30:41;102261.75;;;16.02;100.00
18821;BME280;9539;59.332;18.034;2022-08-25T00:33:09;102249.88;;;15.91;100.00
18821;BME280;9539;59.332;18.034;2022-08-25T00:35:36;102266.25;;;16.01;100.00
18821;BME280;9539;59.332;18.034;2022-08-25T00:38:04;102259.31;;;16.13;100.00
18821;BME280;9539;59.332;18.034;2022-08-25T00:40:32;102249.06;;;16.05;100.00
18821;BME280;9539;59.332;18.034;2022-08-25T00:42:59;102256.03;;;16.08;100.00
18821;BME280;9539;59.332;18.034;2022-08-25T00:45:26;102262.44;;;16.05;100.00
18821;BME280;9539;59.332;18.034;2022-08-25T00:47:53;102248.28;;;16.03;100.00
18821;BME280;9539;59.332;18.034;2022-08-25T00:50:20;102259.78;;;16.05;100.00
18821;BME280;9539;59.332;18.034;2022-08-25T00:52:51;102255.53;;;16.01;100.00
18821;BME280;9539;59.332;18.034;2022-08-25T00:55:22;102264.44;;;16.02;100.00
18821;BME280;9539;59.332;18.034;2022-08-25T00:57:55;102258.41;;;15.98;100.00
18821;BME280;9539;59.332;18.034;2022-08-25T01:00:26;102268.69;;;15.90;100.00
18821;BME280;9539;59.332;18.034;2022-08-25T01:02:53;102258.19;;;15.87;100.00
18821;BME280;9539;59.332;18.034;2022-08-25T01:05:23;102270.50;;;15.89;100.00
18821;BME280;9539;59.332;18.034;2022-08-25T01:07:51;102264.41;;;15.87;100.00
18821;BME280;9539;59.332;18.034;2022-08-25T01:10:20;102266.31;;;15.85;100.00
18821;BME280;9539;59.332;18.034;2022-08-25T01:12:48;102265.34;;;15.86;100.00
18821;BME280;9539;59.332;18.034;2022-08-25T01:15:17;102270.78;;;15.85;100.00
18821;BME280;9539;59.332;18.034;2022-08-25T01:17:47;102265.34;;;15.86;100.00
18821;BME280;9539;59.332;18.034;2022-08-25T01:20:15;102269.19;;;15.96;100.00
18821;BME280;9539;59.332;18.034;2022-08-25T01:22:45;102262.97;;;15.96;100.00
18821;BME280;9539;59.332;18.034;2022-08-25T01:25:24;102264.22;;;15.90;100.00
18821;BME280;9539;59.332;18.034;2022-08-25T01:27:53;102264.22;;;15.90;100.00
18821;BME280;9539;59.332;18.034;2022-08-25T01:30:21;102262.59;;;15.88;100.00
18821;BME280;9539;59.332;18.034;2022-08-25T01:32:47;102269.84;;;15.86;100.00
18821;BME280;9539;59.332;18.034;2022-08-25T01:35:15;102269.75;;;15.87;100.00
18821;BME280;9539;59.332;18.034;2022-08-25T01:37:44;102266.53;;;15.96;100.00
18821;BME280;9539;59.332;18.034;2022-08-25T01:40:12;102272.06;;;15.93;100.00
18821;BME280;9539;59.332;18.034;2022-08-25T01:42:51;102266.03;;;15.90;100.00
18821;BME280;9539;59.332;18.034;2022-08-25T01:45:19;102268.69;;;15.90;100.00
18821;BME280;9539;59.332;18.034;2022-08-25T01:47:46;102271.56;;;15.87;100.00
18821;BME280;9539;59.332;18.034;2022-08-25T01:50:13;102264.84;;;15.80;100.00
18821;BME280;9539;59.332;18.034;2022-08-25T01:52:50;102265.34;;;15.86;100.00
18821;BME280;9539;59.332;18.034;2022-08-25T01:55:17;102272.69;;;15.83;100.00
18821;BME280;9539;59.332;18.034;2022-08-25T01:57:44;102273.56;;;15.83;100.00
18821;BME280;9539;59.332;18.034;2022-08-25T02:00:12;102270.97;;;15.82;100.00
18821;BME280;9539;59.332;18.034;2022-08-25T02:02:40;102269.25;;;15.81;100.00
18821;BME280;9539;59.332;18.034;2022-08-25T02:05:08;102267.53;;;15.80;100.00
18821;BME280;9539;59.332;18.034;2022-08-25T02:07:35;102269.34;;;15.79;100.00
18821;BME280;9539;59.332;18.034;2022-08-25T02:10:06;102267.03;;;15.73;100.00
18821;BME280;9539;59.332;18.034;2022-08-25T02:12:33;102262.03;;;15.67;100.00
18821;BME280;9539;59.332;18.034;2022-08-25T02:15:01;102252.44;;;15.63;100.00
18821;BME280;9539;59.332;18.034;2022-08-25T02:17:30;102259.44;;;15.66;100.00
18821;BME280;9539;59.332;18.034;2022-08-25T02:19:57;102261.53;;;15.61;100.00
18821;BME280;9539;59.332;18.034;2022-08-25T02:22:24;102261.31;;;15.64;100.00
18821;BME280;9539;59.332;18.034;2022-08-25T02:24:51;102254.94;;;15.66;100.00
18821;BME280;9539;59.332;18.034;2022-08-25T02:27:19;102255.31;;;15.60;100.00
18821;BME280;9539;59.332;18.034;2022-08-25T02:29:46;102256.34;;;15.57;100.00
18821;BME280;9539;59.332;18.034;2022-08-25T02:32:13;102257.19;;;15.58;100.00
18821;BME280;9539;59.332;18.034;2022-08-25T02:34:40;102262.28;;;15.63;100.00
18821;BME280;9539;59.332;18.034;2022-08-25T02:37:07;102267.38;;;15.67;100.00
18821;BME280;9539;59.332;18.034;2022-08-25T02:39:33;102261.69;;;15.57;100.00
18821;BME280;9539;59.332;18.034;2022-08-25T02:42:01;102264.56;;;15.54;100.00
18821;BME280;9539;59.332;18.034;2022-08-25T02:44:29;102266.44;;;15.52;100.00
18821;BME280;9539;59.332;18.034;2022-08-25T02:46:56;102260.94;;;15.55;100.00
18821;BME280;9539;59.332;18.034;2022-08-25T02:49:23;102261.13;;;15.51;100.00
18821;BME280;9539;59.332;18.034;2022-08-25T02:51:50;102263.16;;;15.47;100.00
18821;BME280;9539;59.332;18.034;2022-08-25T02:54:19;102266.06;;;15.43;100.00
18821;BME280;9539;59.332;18.034;2022-08-25T02:56:47;102271.41;;;15.43;100.00
18821;BME280;9539;59.332;18.034;2022-08-25T02:59:14;102268.84;;;15.41;100.00
18821;BME280;9539;59.332;18.034;2022-08-25T03:01:43;102270.66;;;15.41;100.00
18821;BME280;9539;59.332;18.034;2022-08-25T03:04:10;102273.50;;;15.38;100.00
18821;BME280;9539;59.332;18.034;2022-08-25T03:06:37;102269.09;;;15.37;100.00
18821;BME280;9539;59.332;18.034;2022-08-25T03:09:04;102272.47;;;15.40;100.00
18821;BME280;9539;59.332;18.034;2022-08-25T03:11:31;102274.63;;;15.34;100.00
18821;BME280;9539;59.332;18.034;2022-08-25T03:13:58;102270.66;;;15.25;100.00
18821;BME280;9539;59.332;18.034;2022-08-25T03:16:25;102277.72;;;15.26;100.00
18821;BME280;9539;59.332;18.034;2022-08-25T03:18:53;102277.56;;;15.29;100.00
18821;BME280;9539;59.332;18.034;2022-08-25T03:21:20;102271.34;;;15.29;100.00
18821;BME280;9539;59.332;18.034;2022-08-25T03:23:47;102262.34;;;15.30;100.00
18821;BME280;9539;59.332;18.034;2022-08-25T03:26:14;102271.25;;;15.30;100.00
18821;BME280;9539;59.332;18.034;2022-08-25T03:29:00;102275.56;;;15.33;100.00
18821;BME280;9539;59.332;18.034;2022-08-25T03:31:29;102262.09;;;15.18;100.00
18821;BME280;9539;59.332;18.034;2022-08-25T03:33:58;102258.41;;;15.21;100.00
18821;BME280;9539;59.332;18.034;2022-08-25T03:36:26;102265.84;;;15.16;100.00
18821;BME280;9539;59.332;18.034;2022-08-25T03:38:52;102274.03;;;15.29;100.00
18821;BME280;9539;59.332;18.034;2022-08-25T03:41:21;102267.88;;;15.27;100.00
18821;BME280;9539;59.332;18.034;2022-08-25T03:43:49;102261.94;;;15.22;100.00
18821;BME280;9539;59.332;18.034;2022-08-25T03:46:18;102257.97;;;15.29;100.00
18821;BME280;9539;59.332;18.034;2022-08-25T03:48:46;102266.69;;;15.32;100.00
18821;BME280;9539;59.332;18.034;2022-08-25T03:51:20;102261.78;;;15.40;100.00
18821;BME280;9539;59.332;18.034;2022-08-25T03:53:47;102266.56;;;15.49;100.00
18821;BME280;9539;59.332;18.034;2022-08-25T03:56:14;102262.75;;;15.55;100.00
18821;BME280;9539;59.332;18.034;2022-08-25T03:58:41;102262.88;;;15.52;100.00
18821;BME280;9539;59.332;18.034;2022-08-25T04:01:09;102266.75;;;15.62;100.00
18821;BME280;9539;59.332;18.034;2022-08-25T04:03:38;102266.59;;;15.65;100.00
18821;BME280;9539;59.332;18.034;2022-08-25T04:06:06;102261.69;;;15.57;100.00
18821;BME280;9539;59.332;18.034;2022-08-25T04:08:35;102264.72;;;15.67;100.00
18821;BME280;9539;59.332;18.034;2022-08-25T04:11:05;102270.22;;;15.64;100.00
18821;BME280;9539;59.332;18.034;2022-08-25T04:13:32;102264.00;;;15.64;100.00
18821;BME280;9539;59.332;18.034;2022-08-25T04:15:59;102250.53;;;15.65;100.00
18821;BME280;9539;59.332;18.034;2022-08-25T04:18:26;102260.88;;;16.01;100.00
18821;BME280;9539;59.332;18.034;2022-08-25T04:21:01;102267.84;;;16.19;100.00
18821;BME280;9539;59.332;18.034;2022-08-25T04:23:28;102265.47;;;16.29;100.00
18821;BME280;9539;59.332;18.034;2022-08-25T04:25:56;102262.97;;;16.40;100.00
18821;BME280;9539;59.332;18.034;2022-08-25T04:28:23;102262.72;;;16.45;100.00
18821;BME280;9539;59.332;18.034;2022-08-25T04:30:50;102260.22;;;16.56;100.00
18821;BME280;9539;59.332;18.034;2022-08-25T04:33:17;102262.03;;;16.41;100.00
18821;BME280;9539;59.332;18.034;2022-08-25T04:35:46;102252.63;;;16.34;100.00
18821;BME280;9539;59.332;18.034;2022-08-25T04:38:13;102263.53;;;16.17;100.00
18821;BME280;9539;59.332;18.034;2022-08-25T04:40:40;102272.09;;;16.37;100.00
18821;BME280;9539;59.332;18.034;2022-08-25T04:43:08;102265.69;;;16.54;100.00
18821;BME280;9539;59.332;18.034;2022-08-25T04:45:36;102258.06;;;16.91;100.00
18821;BME280;9539;59.332;18.034;2022-08-25T04:48:03;102264.31;;;18.13;100.00
18821;BME280;9539;59.332;18.034;2022-08-25T04:50:30;102256.28;;;18.63;100.00
18821;BME280;9539;59.332;18.034;2022-08-25T04:52:57;102256.56;;;19.70;100.00
18821;BME280;9539;59.332;18.034;2022-08-25T04:55:24;102258.91;;;20.33;100.00
18821;BME280;9539;59.332;18.034;2022-08-25T04:57:51;102258.63;;;21.47;100.00
18821;BME280;9539;59.332;18.034;2022-08-25T05:00:19;102255.81;;;22.13;100.00
18821;BME280;9539;59.332;18.034;2022-08-25T05:02:46;102254.81;;;21.82;100.00
18821;BME280;9539;59.332;18.034;2022-08-25T05:05:12;102238.28;;;22.58;100.00
18821;BME280;9539;59.332;18.034;2022-08-25T05:07:39;102253.28;;;22.93;97.33
18821;BME280;9539;59.332;18.034;2022-08-25T05:10:07;102261.22;;;23.25;93.11
18821;BME280;9539;59.332;18.034;2022-08-25T05:12:33;102256.56;;;22.96;81.71
18821;BME280;9539;59.332;18.034;2022-08-25T05:15:00;102261.69;;;23.39;86.83
18821;BME280;9539;59.332;18.034;2022-08-25T05:17:49;102254.78;;;23.75;82.39
18821;BME280;9539;59.332;18.034;2022-08-25T05:20:17;102240.91;;;24.36;78.48
18821;BME280;9539;59.332;18.034;2022-08-25T05:22:44;102249.94;;;23.98;75.69
18821;BME280;9539;59.332;18.034;2022-08-25T05:25:12;102245.47;;;24.73;71.09
18821;BME280;9539;59.332;18.034;2022-08-25T05:27:40;102255.19;;;23.71;69.21
18821;BME280;9539;59.332;18.034;2022-08-25T05:30:09;102241.28;;;24.88;67.90
18821;BME280;9539;59.332;18.034;2022-08-25T05:32:36;102247.31;;;25.54;65.00
18821;BME280;9539;59.332;18.034;2022-08-25T05:35:05;102250.78;;;25.29;61.95
18821;BME280;9539;59.332;18.034;2022-08-25T05:37:32;102240.88;;;26.26;57.20
18821;BME280;9539;59.332;18.034;2022-08-25T05:39:59;102254.56;;;25.45;60.82
18821;BME280;9539;59.332;18.034;2022-08-25T05:42:26;102244.88;;;26.40;56.60
18821;BME280;9539;59.332;18.034;2022-08-25T05:44:53;102246.88;;;26.12;57.19
18821;BME280;9539;59.332;18.034;2022-08-25T05:47:20;102244.63;;;26.85;56.66
18821;BME280;9539;59.332;18.034;2022-08-25T05:49:47;102249.34;;;25.79;60.14
18821;BME280;9539;59.332;18.034;2022-08-25T05:52:15;102247.53;;;27.25;56.29
18821;BME280;9539;59.332;18.034;2022-08-25T05:54:42;102243.34;;;26.19;59.41
18821;BME280;9539;59.332;18.034;2022-08-25T05:57:09;102250.84;;;25.01;65.49
18821;BME280;9539;59.332;18.034;2022-08-25T05:59:36;102249.75;;;27.22;60.04
18821;BME280;9539;59.332;18.034;2022-08-25T06:02:03;102253.63;;;26.51;67.10
18821;BME280;9539;59.332;18.034;2022-08-25T06:04:47;102250.66;;;26.19;68.96
18821;BME280;9539;59.332;18.034;2022-08-25T06:07:15;102258.31;;;25.17;74.83
18821;BME280;9539;59.332;18.034;2022-08-25T06:09:42;102254.22;;;27.39;64.02
18821;BME280;9539;59.332;18.034;2022-08-25T06:12:11;102250.63;;;27.22;63.42
18821;BME280;9539;59.332;18.034;2022-08-25T06:14:38;102257.06;;;27.79;61.62
18821;BME280;9539;59.332;18.034;2022-08-25T06:17:04;102253.91;;;27.50;64.02
18821;BME280;9539;59.332;18.034;2022-08-25T06:19:31;102256.00;;;26.80;70.20
18821;BME280;9539;59.332;18.034;2022-08-25T06:21:59;102251.94;;;27.18;68.98
18821;BME280;9539;59.332;18.034;2022-08-25T06:24:28;102253.63;;;26.08;73.01
18821;BME280;9539;59.332;18.034;2022-08-25T06:26:55;102255.75;;;25.96;71.44
18821;BME280;9539;59.332;18.034;2022-08-25T06:29:22;102259.25;;;26.24;74.74
18821;BME280;9539;59.332;18.034;2022-08-25T06:31:49;102257.50;;;26.23;75.98
18821;BME280;9539;59.332;18.034;2022-08-25T06:34:16;102262.31;;;27.57;67.03
18821;BME280;9539;59.332;18.034;2022-08-25T06:36:43;102262.09;;;28.80;60.40
18821;BME280;9539;59.332;18.034;2022-08-25T06:39:10;102257.38;;;28.49;59.33
18821;BME280;9539;59.332;18.034;2022-08-25T06:41:38;102269.03;;;25.81;71.04
18821;BME280;9539;59.332;18.034;2022-08-25T06:44:05;102265.63;;;27.42;63.58
18821;BME280;9539;59.332;18.034;2022-08-25T06:46:32;102263.72;;;26.33;67.83
18821;BME280;9539;59.332;18.034;2022-08-25T06:48:59;102261.03;;;25.62;74.14
18821;BME280;9539;59.332;18.034;2022-08-25T06:51:26;102265.47;;;25.81;73.05
18821;BME280;9539;59.332;18.034;2022-08-25T06:53:53;102255.50;;;26.07;71.88
18821;BME280;9539;59.332;18.034;2022-08-25T06:56:20;102251.13;;;26.14;70.12
18821;BME280;9539;59.332;18.034;2022-08-25T06:58:49;102260.53;;;26.97;66.20
18821;BME280;9539;59.332;18.034;2022-08-25T07:01:18;102258.41;;;27.17;65.63
18821;BME280;9539;59.332;18.034;2022-08-25T07:03:46;102266.09;;;27.96;59.50
18821;BME280;9539;59.332;18.034;2022-08-25T07:06:14;102256.13;;;28.84;56.76
18821;BME280;9539;59.332;18.034;2022-08-25T07:08:43;102260.13;;;27.84;59.46
18821;BME280;9539;59.332;18.034;2022-08-25T07:11:10;102257.53;;;28.48;58.56
18821;BME280;9539;59.332;18.034;2022-08-25T07:13:39;102260.50;;;29.63;53.13
18821;BME280;9539;59.332;18.034;2022-08-25T07:16:07;102265.69;;;29.81;52.11
18821;BME280;9539;59.332;18.034;2022-08-25T07:18:35;102262.97;;;29.19;54.17
18821;BME280;9539;59.332;18.034;2022-08-25T07:21:02;102262.50;;;30.00;50.63
18821;BME280;9539;59.332;18.034;2022-08-25T07:23:29;102258.53;;;30.99;46.29
18821;BME280;9539;59.332;18.034;2022-08-25T07:26:06;102272.66;;;30.29;47.09
18821;BME280;9539;59.332;18.034;2022-08-25T07:28:33;102266.38;;;30.06;47.67
18821;BME280;9539;59.332;18.034;2022-08-25T07:31:00;102271.56;;;29.08;49.85
18821;BME280;9539;59.332;18.034;2022-08-25T07:33:28;102269.03;;;30.14;47.23
18821;BME280;9539;59.332;18.034;2022-08-25T07:35:55;102273.22;;;28.70;48.29
18821;BME280;9539;59.332;18.034;2022-08-25T07:38:22;102271.03;;;28.41;51.97
18821;BME280;9539;59.332;18.034;2022-08-25T07:40:49;102264.88;;;28.47;50.36
18821;BME280;9539;59.332;18.034;2022-08-25T07:43:20;102275.22;;;29.23;47.42
18821;BME280;9539;59.332;18.034;2022-08-25T07:45:47;102272.72;;;27.94;49.96
18821;BME280;9539;59.332;18.034;2022-08-25T07:48:15;102270.47;;;29.17;49.51
18821;BME280;9539;59.332;18.034;2022-08-25T07:50:46;102268.09;;;27.12;57.57
18821;BME280;9539;59.332;18.034;2022-08-25T07:53:15;102265.75;;;29.73;47.25
18821;BME280;9539;59.332;18.034;2022-08-25T07:55:42;102262.13;;;29.11;47.47
18821;BME280;9539;59.332;18.034;2022-08-25T07:58:09;102272.19;;;30.78;42.64
18821;BME280;9539;59.332;18.034;2022-08-25T08:00:37;102264.50;;;31.53;40.88
18821;BME280;9539;59.332;18.034;2022-08-25T08:03:06;102258.53;;;31.28;40.35
18821;BME280;9539;59.332;18.034;2022-08-25T08:05:33;102242.06;;;32.35;37.60
18821;BME280;9539;59.332;18.034;2022-08-25T08:08:02;102254.28;;;32.94;36.30
18821;BME280;9539;59.332;18.034;2022-08-25T08:10:29;102254.88;;;32.83;35.24
18821;BME280;9539;59.332;18.034;2022-08-25T08:12:56;102257.97;;;32.39;35.35
18821;BME280;9539;59.332;18.034;2022-08-25T08:15:23;102260.31;;;30.48;39.32
18821;BME280;9539;59.332;18.034;2022-08-25T08:17:50;102263.03;;;29.96;39.22
18821;BME280;9539;59.332;18.034;2022-08-25T08:20:17;102267.41;;;30.05;37.04
18821;BME280;9539;59.332;18.034;2022-08-25T08:22:44;102270.94;;;30.80;36.38
18821;BME280;9539;59.332;18.034;2022-08-25T08:25:13;102280.66;;;30.16;37.96
18821;BME280;9539;59.332;18.034;2022-08-25T08:27:40;102275.03;;;29.33;40.10
18821;BME280;9539;59.332;18.034;2022-08-25T08:30:08;102277.78;;;29.25;39.50
18821;BME280;9539;59.332;18.034;2022-08-25T08:32:35;102285.53;;;29.21;40.04
18821;BME280;9539;59.332;18.034;2022-08-25T08:35:02;102274.25;;;29.78;39.24
18821;BME280;9539;59.332;18.034;2022-08-25T08:37:30;102283.34;;;30.39;38.98
18821;BME280;9539;59.332;18.034;2022-08-25T08:39:56;102270.34;;;30.99;37.76
18821;BME280;9539;59.332;18.034;2022-08-25T08:42:48;102285.78;;;30.34;37.19
18821;BME280;9539;59.332;18.034;2022-08-25T08:45:29;102285.44;;;29.91;37.93
18821;BME280;9539;59.332;18.034;2022-08-25T08:48:07;102277.28;;;31.61;37.09
18821;BME280;9539;59.332;18.034;2022-08-25T08:50:43;102274.13;;;30.98;36.02
18821;BME280;9539;59.332;18.034;2022-08-25T08:53:18;102284.69;;;30.05;37.00
18821;BME280;9539;59.332;18.034;2022-08-25T08:55:50;102270.31;;;30.41;36.28
18821;BME280;9539;59.332;18.034;2022-08-25T08:58:22;102272.28;;;29.64;38.51
18821;BME280;9539;59.332;18.034;2022-08-25T09:00:52;102271.88;;;31.89;34.74
18821;BME280;9539;59.332;18.034;2022-08-25T09:03:30;102270.22;;;29.89;36.97
18821;BME280;9539;59.332;18.034;2022-08-25T09:06:01;102271.25;;;29.03;37.60
18821;BME280;9539;59.332;18.034;2022-08-25T09:08:29;102273.41;;;28.60;39.22
18821;BME280;9539;59.332;18.034;2022-08-25T09:11:02;102260.53;;;29.24;35.93
18821;BME280;9539;59.332;18.034;2022-08-25T09:13:46;102268.75;;;29.24;37.36
18821;BME280;9539;59.332;18.034;2022-08-25T09:16:23;102264.72;;;30.34;33.71
18821;BME280;9539;59.332;18.034;2022-08-25T09:19:21;102263.28;;;28.85;35.62
18821;BME280;9539;59.332;18.034;2022-08-25T09:22:02;102259.50;;;28.94;34.30
18821;BME280;9539;59.332;18.034;2022-08-25T09:24:42;102258.72;;;28.61;34.56
18821;BME280;9539;59.332;18.034;2022-08-25T09:27:20;102256.06;;;28.21;34.98
18821;BME280;9539;59.332;18.034;2022-08-25T09:29:58;102264.91;;;27.99;35.54
18821;BME280;9539;59.332;18.034;2022-08-25T09:32:27;102253.94;;;28.55;34.02
18821;BME280;9539;59.332;18.034;2022-08-25T09:34:54;102256.53;;;28.00;35.85
18821;BME280;9539;59.332;18.034;2022-08-25T09:37:22;102253.78;;;28.49;35.16
18821;BME280;9539;59.332;18.034;2022-08-25T09:39:49;102251.00;;;28.81;33.82
18821;BME280;9539;59.332;18.034;2022-08-25T09:42:18;102239.38;;;28.79;33.02
18821;BME280;9539;59.332;18.034;2022-08-25T09:44:46;102245.50;;;28.89;33.46
18821;BME280;9539;59.332;18.034;2022-08-25T09:47:21;102240.22;;;28.72;33.43
18821;BME280;9539;59.332;18.034;2022-08-25T09:49:50;102250.91;;;28.50;33.44
18821;BME280;9539;59.332;18.034;2022-08-25T09:52:36;102249.38;;;28.07;34.22
18821;BME280;9539;59.332;18.034;2022-08-25T09:55:26;102242.00;;;28.65;33.02
18821;BME280;9539;59.332;18.034;2022-08-25T09:57:56;102236.19;;;29.07;32.60
18821;BME280;9539;59.332;18.034;2022-08-25T10:00:25;102225.09;;;28.61;32.87
18821;BME280;9539;59.332;18.034;2022-08-25T10:03:10;102228.59;;;28.14;33.39
18821;BME280;9539;59.332;18.034;2022-08-25T10:05:56;102222.28;;;27.73;33.79
18821;BME280;9539;59.332;18.034;2022-08-25T10:08:30;102224.94;;;28.46;32.94
18821;BME280;9539;59.332;18.034;2022-08-25T10:10:59;102225.78;;;29.87;31.92
18821;BME280;9539;59.332;18.034;2022-08-25T10:13:38;102221.13;;;29.11;33.78
18821;BME280;9539;59.332;18.034;2022-08-25T10:16:10;102216.78;;;28.38;34.08
18821;BME280;9539;59.332;18.034;2022-08-25T10:18:40;102220.22;;;28.16;34.97
18821;BME280;9539;59.332;18.034;2022-08-25T10:21:10;102224.91;;;29.49;33.57
18821;BME280;9539;59.332;18.034;2022-08-25T10:23:40;102215.16;;;29.15;34.44
18821;BME280;9539;59.332;18.034;2022-08-25T10:26:14;102207.50;;;28.63;33.87
18821;BME280;9539;59.332;18.034;2022-08-25T10:28:54;102206.06;;;29.23;33.87
18821;BME280;9539;59.332;18.034;2022-08-25T10:31:29;102192.50;;;30.50;32.27
18821;BME280;9539;59.332;18.034;2022-08-25T10:34:14;102198.81;;;29.30;33.89
18821;BME280;9539;59.332;18.034;2022-08-25T10:36:52;102198.06;;;29.13;34.69
18821;BME280;9539;59.332;18.034;2022-08-25T10:39:33;102200.03;;;30.18;32.93
18821;BME280;9539;59.332;18.034;2022-08-25T10:42:14;102193.91;;;30.31;33.19
18821;BME280;9539;59.332;18.034;2022-08-25T10:44:53;102195.56;;;29.80;33.43
18821;BME280;9539;59.332;18.034;2022-08-25T10:48:01;102194.00;;;29.09;34.75
18821;BME280;9539;59.332;18.034;2022-08-25T10:50:40;102185.84;;;30.00;33.98
18821;BME280;9539;59.332;18.034;2022-08-25T10:53:20;102181.81;;;28.89;35.80
18821;BME280;9539;59.332;18.034;2022-08-25T10:55:59;102172.44;;;28.83;34.85
18821;BME280;9539;59.332;18.034;2022-08-25T10:58:41;102164.22;;;30.05;33.68
18821;BME280;9539;59.332;18.034;2022-08-25T11:01:17;102175.63;;;30.09;33.46
18821;BME280;9539;59.332;18.034;2022-08-25T11:03:49;102172.63;;;30.04;33.97
18821;BME280;9539;59.332;18.034;2022-08-25T11:06:23;102174.72;;;28.63;35.77
18821;BME280;9539;59.332;18.034;2022-08-25T11:08:56;102164.06;;;29.16;34.87
18821;BME280;9539;59.332;18.034;2022-08-25T11:11:27;102171.00;;;28.48;36.19
18821;BME280;9539;59.332;18.034;2022-08-25T11:13:59;102163.75;;;28.08;36.94
18821;BME280;9539;59.332;18.034;2022-08-25T11:16:35;102171.47;;;27.80;36.61
18821;BME280;9539;59.332;18.034;2022-08-25T11:19:08;102174.53;;;27.86;36.93
18821;BME280;9539;59.332;18.034;2022-08-25T11:21:43;102181.53;;;26.89;39.76
18821;BME280;9539;59.332;18.034;2022-08-25T11:24:28;102178.59;;;27.41;39.18
18821;BME280;9539;59.332;18.034;2022-08-25T11:26:58;102176.72;;;26.23;40.26
18821;BME280;9539;59.332;18.034;2022-08-25T11:29:30;102175.63;;;26.34;40.62
18821;BME280;9539;59.332;18.034;2022-08-25T11:32:01;102160.69;;;26.46;40.10
18821;BME280;9539;59.332;18.034;2022-08-25T11:34:31;102165.28;;;26.46;41.00
18821;BME280;9539;59.332;18.034;2022-08-25T11:37:04;102171.31;;;26.06;41.37
18821;BME280;9539;59.332;18.034;2022-08-25T11:40:03;102168.13;;;26.10;41.42
18821;BME280;9539;59.332;18.034;2022-08-25T11:42:42;102169.22;;;25.38;43.23
18821;BME280;9539;59.332;18.034;2022-08-25T11:45:24;102167.69;;;25.08;44.66
18821;BME280;9539;59.332;18.034;2022-08-25T11:48:07;102165.88;;;25.44;44.30
18821;BME280;9539;59.332;18.034;2022-08-25T11:50:54;102161.13;;;25.29;44.71
18821;BME280;9539;59.332;18.034;2022-08-25T11:53:26;102151.66;;;25.86;43.56
18821;BME280;9539;59.332;18.034;2022-08-25T11:55:55;102136.13;;;26.30;42.09
18821;BME280;9539;59.332;18.034;2022-08-25T11:58:31;102142.44;;;26.31;43.01
18821;BME280;9539;59.332;18.034;2022-08-25T12:01:00;102136.34;;;25.67;43.29
18821;BME280;9539;59.332;18.034;2022-08-25T12:03:50;102140.34;;;25.73;43.60
18821;BME280;9539;59.332;18.034;2022-08-25T12:06:25;102132.75;;;25.84;43.83
18821;BME280;9539;59.332;18.034;2022-08-25T12:09:16;102128.53;;;25.46;43.46
18821;BME280;9539;59.332;18.034;2022-08-25T12:11:46;102127.88;;;25.35;43.64
18821;BME280;9539;59.332;18.034;2022-08-25T12:14:33;102114.94;;;25.46;44.50
18821;BME280;9539;59.332;18.034;2022-08-25T12:17:16;102122.59;;;25.69;45.57
18821;BME280;9539;59.332;18.034;2022-08-25T12:19:53;102108.97;;;25.86;44.22
18821;BME280;9539;59.332;18.034;2022-08-25T12:22:55;102098.09;;;26.20;42.41
18821;BME280;9539;59.332;18.034;2022-08-25T12:25:43;102099.09;;;26.11;42.18
18821;BME280;9539;59.332;18.034;2022-08-25T12:31:28;102088.88;;;26.05;42.92
18821;BME280;9539;59.332;18.034;2022-08-25T12:34:09;102087.81;;;26.06;43.38
18821;BME280;9539;59.332;18.034;2022-08-25T12:36:54;102091.41;;;26.07;43.86
18821;BME280;9539;59.332;18.034;2022-08-25T12:39:28;102092.78;;;26.37;42.67
18821;BME280;9539;59.332;18.034;2022-08-25T12:42:00;102082.88;;;26.70;42.01
18821;BME280;9539;59.332;18.034;2022-08-25T12:44:41;102078.72;;;26.49;41.52
18821;BME280;9539;59.332;18.034;2022-08-25T12:47:25;102073.66;;;26.62;42.32
18821;BME280;9539;59.332;18.034;2022-08-25T12:49:53;102070.47;;;26.75;41.92
18821;BME280;9539;59.332;18.034;2022-08-25T12:52:40;102068.59;;;26.76;41.79
18821;BME280;9539;59.332;18.034;2022-08-25T12:55:08;102070.75;;;26.56;42.35
18821;BME280;9539;59.332;18.034;2022-08-25T12:57:41;102068.03;;;26.56;42.65
18821;BME280;9539;59.332;18.034;2022-08-25T13:00:14;102062.28;;;26.75;42.33
18821;BME280;9539;59.332;18.034;2022-08-25T13:03:03;102069.50;;;26.92;41.86
18821;BME280;9539;59.332;18.034;2022-08-25T13:05:57;102061.97;;;26.86;42.14
18821;BME280;9539;59.332;18.034;2022-08-25T13:11:31;102067.31;;;26.54;42.75